Flight Track Log - Related Links

Times and Time Zones

All times are in EDT time to prevent confusion due to time zone crossing. See the ASA123 flight status page for this flight to view local times or setup timezone preferences in your user account.

Time Position Orientation Groundspeed Altitude Reporting Facility
EDT Latitude Longitude Course Direction KTS MPH feet Rate Location/Type
Tue 04:34:42 PM 47.4306 -122.3097 326° Northwest 167 192 1,300  Level Seattle Center
Tue 04:35:55 PM 47.3622 -122.3114 181° South 222 255 3,600 1,906 Climbing Seattle Center
Tue 04:36:07 PM 47.3531 -122.3100 174° South 215 247 4,000 2,137 Climbing Seattle Center
Tue 04:37:08 PM 47.3119 -122.3939 234° Southwest 267 307 6,200 2,016 Climbing Seattle Center
Tue 04:38:09 PM 47.3294 -122.5008 284° West 278 320 8,100 1,820 Climbing Seattle Center
Tue 04:39:10 PM 47.3850 -122.5794 316° Northwest 278 320 9,900 1,918 Climbing Seattle Center
Tue 04:40:00 PM 48.0402 -122.8049 326° Northwest  Level Estimated
Tue 04:40:11 PM 47.4489 -122.6636 318° Northwest 309 356 12,000  Level Seattle Center
Tue 04:41:13 PM 47.5192 -122.7511 320° Northwest 330 380 15,100 2,780 Climbing Seattle Center
Tue 04:42:14 PM 47.6044 -122.8242 330° Northwest 339 390 17,700 2,410 Climbing Seattle Center
Tue 04:43:15 PM 47.6903 -122.8989 330° Northwest 349 402 20,000 1,623 Climbing Seattle Center
Tue 04:44:16 PM 47.7797 -122.9775 329° Northwest 365 420 21,000 1,525 Climbing Seattle Center
Tue 04:45:17 PM 47.8686 -123.0564 329° Northwest 369 425 23,100 1,967 Climbing Seattle Center
Tue 04:46:18 PM 47.9586 -123.1353 330° Northwest 372 428 25,000 1,820 Climbing Seattle Center
Tue 04:47:19 PM 48.0522 -123.2197 329° Northwest 381 438 26,800 1,795 Climbing Seattle Center
Tue 04:48:15 PM 48.1333 -123.3000 327° Northwest 400 460 28,500 1,655 Climbing Vancouver Center
Tue 04:49:15 PM 48.2333 -123.4000 326° Northwest 410 472 30,000 1,450 Climbing Vancouver Center
Tue 04:50:15 PM 48.3333 -123.4667 336° Northwest 420 483 31,400 1,450 Climbing Vancouver Center
Tue 04:51:15 PM 48.4333 -123.5667 326° Northwest 430 495 32,900 1,600 Climbing Vancouver Center
Tue 04:52:15 PM 48.5333 -123.6667 326° Northwest 430 495 34,600 1,750 Climbing Vancouver Center
Tue 04:53:15 PM 48.6333 -123.7667 327° Northwest 420 483 36,400 1,350 Climbing Vancouver Center
Tue 04:54:15 PM 48.7333 -123.8500 331° Northwest 410 472 37,300 700 Climbing Vancouver Center
Tue 04:55:15 PM 48.8167 -123.9333 327° Northwest 420 483 37,800 350 Climbing Vancouver Center
Tue 04:56:15 PM 48.9333 -124.0333 331° Northwest 420 483 38,000 100 Climbing Vancouver Center
Tue 04:57:15 PM 49.0333 -124.1333 327° Northwest 430 495 38,000  Level Vancouver Center
Tue 04:58:15 PM 49.1333 -124.2333 327° Northwest 420 483 38,000  Level Vancouver Center
Tue 04:59:15 PM 49.2333 -124.3167 331° Northwest 420 483 38,000  Level Vancouver Center
Tue 05:00:15 PM 49.3167 -124.4167 322° Northwest 420 483 38,000  Level Vancouver Center
Tue 05:01:15 PM 49.4333 -124.5167 331° Northwest 420 483 38,000  Level Vancouver Center
Tue 05:02:15 PM 49.5333 -124.6000 332° Northwest 420 483 38,000  Level Vancouver Center
Tue 05:03:15 PM 49.6333 -124.7000 327° Northwest 420 483 38,000  Level Vancouver Center
Tue 05:04:15 PM 49.7333 -124.8000 327° Northwest 420 483 38,000  Level Vancouver Center
Tue 05:05:15 PM 49.8333 -124.8833 332° Northwest 420 483 38,000  Level Vancouver Center
Tue 05:06:15 PM 49.9333 -125.0000 323° Northwest 420 483 38,000  Level Vancouver Center
Tue 05:07:15 PM 50.0333 -125.1000 327° Northwest 430 495 38,000  Level Vancouver Center
Tue 05:08:15 PM 50.1333 -125.1833 332° Northwest 430 495 38,000  Level Vancouver Center
Tue 05:09:15 PM 50.2333 -125.2833 327° Northwest 430 495 38,000  Level Vancouver Center
Tue 05:10:15 PM 50.3333 -125.4000 323° Northwest 420 483 38,000  Level Vancouver Center
Tue 05:11:15 PM 50.4333 -125.4833 332° Northwest 420 483 38,000  Level Vancouver Center
Tue 05:12:15 PM 50.5333 -125.5833 328° Northwest 420 483 38,000  Level Vancouver Center
Tue 05:13:15 PM 50.6333 -125.7000 324° Northwest 420 483 38,000  Level Vancouver Center
Tue 05:14:15 PM 50.7167 -125.7833 328° Northwest 420 483 38,000  Level Vancouver Center
Tue 05:15:15 PM 50.8167 -125.8833 328° Northwest 410 472 38,000  Level Vancouver Center
Tue 05:16:15 PM 50.9167 -125.9667 332° Northwest 410 472 38,000  Level Vancouver Center
Tue 05:17:15 PM 51.0167 -126.0833 324° Northwest 410 472 38,000  Level Vancouver Center
Tue 05:18:15 PM 51.1000 -126.1667 328° Northwest 410 472 38,000  Level Vancouver Center
Tue 05:19:15 PM 51.2000 -126.2833 324° Northwest 410 472 38,000  Level Vancouver Center
Tue 05:20:15 PM 51.3000 -126.3667 332° Northwest 410 472 38,000  Level Vancouver Center
Tue 05:21:15 PM 51.4000 -126.4667 328° Northwest 410 472 38,000  Level Vancouver Center
Tue 05:22:15 PM 51.5000 -126.5833 324° Northwest 420 483 38,000  Level Vancouver Center
Tue 05:23:15 PM 51.5667 -126.6667 322° Northwest 420 483 38,000  Level Vancouver Center
Tue 05:24:15 PM 51.6833 -126.7833 328° Northwest 420 483 38,000  Level Vancouver Center
Tue 05:25:15 PM 51.7667 -126.8667 328° Northwest 420 483 38,000  Level Vancouver Center
Tue 05:26:15 PM 51.8833 -126.9833 328° Northwest 420 483 38,000  Level Vancouver Center
Tue 05:27:15 PM 51.9833 -127.1000 324° Northwest 430 495 38,000  Level Vancouver Center
Tue 05:28:15 PM 52.0833 -127.2167 324° Northwest 420 483 38,000  Level Vancouver Center
Tue 05:29:15 PM 52.1833 -127.3167 328° Northwest 420 483 38,000  Level Vancouver Center
Tue 05:30:15 PM 52.2500 -127.4333 313° West 420 483 38,000  Level Vancouver Center
Tue 05:31:15 PM 52.3500 -127.5167 333° Northwest 410 472 38,000  Level Vancouver Center
Tue 05:32:15 PM 52.4500 -127.6333 325° Northwest 410 472 38,000  Level Vancouver Center
Tue 05:33:15 PM 52.5500 -127.7500 325° Northwest 410 472 38,000  Level Vancouver Center
Tue 05:34:15 PM 52.6500 -127.8500 329° Northwest 410 472 38,000  Level Vancouver Center
Tue 05:35:15 PM 52.7333 -127.9667 320° Northwest 410 472 38,000  Level Vancouver Center
Tue 05:36:15 PM 52.8167 -128.0500 329° Northwest 400 460 38,000  Level Vancouver Center
Tue 05:37:15 PM 52.9167 -128.1667 325° Northwest 400 460 38,000  Level Vancouver Center
Tue 05:38:15 PM 53.0167 -128.2667 329° Northwest 410 472 38,000  Level Vancouver Center
Tue 05:39:15 PM 53.1167 -128.3667 329° Northwest 400 460 38,000  Level Vancouver Center
Tue 05:40:15 PM 53.2000 -128.4833 320° Northwest 400 460 38,000  Level Vancouver Center
Tue 05:41:15 PM 53.2833 -128.5667 329° Northwest 400 460 38,000  Level Vancouver Center
Tue 05:42:15 PM 53.3833 -128.7000 322° Northwest 400 460 38,000  Level Vancouver Center
Tue 05:43:15 PM 53.4833 -128.7833 334° Northwest 400 460 38,000  Level Vancouver Center
Tue 05:44:15 PM 53.5500 -128.9167 310° West 400 460 38,000  Level Vancouver Center
Tue 05:45:15 PM 53.6500 -129.0167 329° Northwest 400 460 38,000  Level Vancouver Center
Tue 05:46:15 PM 53.7500 -129.1333 325° Northwest 400 460 38,000  Level Vancouver Center
Tue 05:47:15 PM 53.8500 -129.2333 329° Northwest 410 472 38,000  Level Vancouver Center
Tue 05:48:15 PM 53.9167 -129.3500 314° West 400 460 38,000  Level Vancouver Center
Tue 05:49:15 PM 54.0167 -129.4500 330° Northwest 400 460 38,000  Level Vancouver Center
Tue 05:50:15 PM 54.1167 -129.5833 322° Northwest 400 460 38,000  Level Vancouver Center
Tue 05:51:15 PM 54.2000 -129.6833 325° Northwest 390 449 38,000  Level Vancouver Center
Tue 05:52:15 PM 54.2833 -129.8000 321° Northwest 380 437 38,000  Level Vancouver Center
Tue 05:53:15 PM 54.3667 -129.9000 325° Northwest 380 437 38,000  Level Vancouver Center
Tue 05:54:15 PM 54.4667 -130.0000 330° Northwest 380 437 38,000  Level Vancouver Center
Tue 05:55:15 PM 54.5333 -130.1333 311° West 380 437 38,000  Level Vancouver Center
Tue 05:56:15 PM 54.6167 -130.2333 325° Northwest 380 437 38,000  Level Vancouver Center
Tue 05:57:15 PM 54.7167 -130.3333 330° Northwest 380 437 38,000  Level Vancouver Center
Tue 05:58:15 PM 54.7833 -130.4333 319° Northwest 380 437 38,000  Level Vancouver Center
Tue 05:59:15 PM 54.8833 -130.5500 326° Northwest 380 437 38,000  Level Vancouver Center
Tue 06:00:15 PM 54.9667 -130.6667 321° Northwest 390 449 38,000  Level Vancouver Center
Tue 06:01:15 PM 55.0500 -130.7667 326° Northwest 380 437 38,000  Level Vancouver Center
Tue 06:02:15 PM 55.1333 -130.9000 318° Northwest 390 449 38,000  Level Vancouver Center
Tue 06:03:15 PM 55.2167 -131.0000 326° Northwest 380 437 38,000  Level Vancouver Center
Tue 06:04:15 PM 55.3000 -131.1000 326° Northwest 380 437 38,000  Level Vancouver Center
Tue 06:05:15 PM 55.4000 -131.2333 323° Northwest 380 437 38,000  Level Vancouver Center
Tue 06:06:15 PM 55.4667 -131.3333 320° Northwest 390 449 38,000  Level Vancouver Center
Tue 06:07:15 PM 55.5667 -131.4500 327° Northwest 390 449 38,000  Level Vancouver Center
Tue 06:08:15 PM 55.6500 -131.5833 318° Northwest 390 449 38,000  Level Vancouver Center
Tue 06:09:15 PM 55.7333 -131.6833 326° Northwest 390 449 38,000  Level Vancouver Center
Tue 06:10:15 PM 55.8167 -131.7833 326° Northwest 390 449 38,000  Level Vancouver Center
Tue 06:11:15 PM 55.9000 -131.9333 315° West 390 449 38,000  Level Vancouver Center
Tue 06:12:15 PM 55.9833 -132.0333 326° Northwest 390 449 38,000  Level Vancouver Center
Tue 06:13:15 PM 56.0833 -132.1333 331° Northwest 380 437 38,000  Level Vancouver Center
Tue 06:14:15 PM 56.1500 -132.2833 309° West 390 449 38,000  Level Vancouver Center
Tue 06:15:15 PM 56.2500 -132.3833 331° Northwest 380 437 38,000  Level Vancouver Center
Tue 06:16:15 PM 56.3167 -132.5167 312° West 380 437 38,000  Level Vancouver Center
Tue 06:17:15 PM 56.4167 -132.6333 327° Northwest 370 426 38,000  Level Vancouver Center
Tue 06:18:15 PM 56.4833 -132.7500 316° Northwest 380 437 38,000  Level Vancouver Center
Tue 06:19:15 PM 56.5833 -132.8500 331° Northwest 380 437 38,000  Level Vancouver Center
Tue 06:20:15 PM 56.6500 -133.0000 309° West 390 449 38,000  Level Vancouver Center
Tue 06:21:15 PM 56.7333 -133.0833 331° Northwest 390 449 38,000  Level Vancouver Center
Tue 06:22:15 PM 56.8167 -133.2167 319° Northwest 390 449 38,000  Level Vancouver Center
Tue 06:23:15 PM 56.9000 -133.3333 323° Northwest 390 449 38,000  Level Vancouver Center
Tue 06:24:15 PM 56.9833 -133.4833 316° Northwest 390 449 38,000  Level Vancouver Center
Tue 06:25:15 PM 57.0667 -133.5833 327° Northwest 390 449 38,000  Level Vancouver Center
Tue 06:26:15 PM 57.1500 -133.7000 323° Northwest 390 449 38,000  Level Vancouver Center
Tue 06:27:15 PM 57.2333 -133.8500 316° Northwest 390 449 38,000  Level Vancouver Center
Tue 06:28:15 PM 57.3167 -133.9667 323° Northwest 390 449 38,000  Level Vancouver Center
Tue 06:29:15 PM 57.4000 -134.0833 323° Northwest 390 449 38,000  Level Vancouver Center
Tue 06:30:15 PM 57.4833 -134.2000 323° Northwest 390 449 38,000  Level Vancouver Center
Tue 06:31:15 PM 57.5500 -134.3333 313° West 380 437 38,000  Level Vancouver Center
Tue 06:31:45 PM 57.6000 -134.3500 350° North 380 437 38,000  Level Anchorage Center
Tue 06:32:45 PM 57.6833 -134.4833 319° Northwest 380 437 38,000  Level Anchorage Center
Tue 06:33:45 PM 57.7667 -134.6000 323° Northwest 380 437 38,000  Level Anchorage Center
Tue 06:34:46 PM 57.8500 -134.7333 320° Northwest 380 437 38,000  Level Anchorage Center
Tue 06:35:46 PM 57.9333 -134.8500 323° Northwest 370 426 38,000  Level Anchorage Center
Tue 06:36:46 PM 58.0000 -134.9833 313° West 380 437 38,000  Level Anchorage Center
Tue 06:37:47 PM 58.0833 -135.1167 320° Northwest 370 426 38,000  Level Anchorage Center
Tue 06:38:47 PM 58.1667 -135.2333 324° Northwest 380 437 38,000  Level Anchorage Center
Tue 06:39:47 PM 58.2500 -135.3333 328° Northwest 370 426 38,000  Level Anchorage Center
Tue 06:40:48 PM 58.3500 -135.4333 332° Northwest 380 437 38,000  Level Anchorage Center
Tue 06:41:48 PM 58.4333 -135.5333 328° Northwest 370 426 38,000  Level Anchorage Center
Tue 06:42:48 PM 58.5333 -135.6333 332° Northwest 380 437 38,000  Level Anchorage Center
Tue 06:43:49 PM 58.6167 -135.7333 328° Northwest 380 437 38,000  Level Anchorage Center
Tue 06:44:49 PM 58.7167 -135.8333 333° Northwest 370 426 38,000  Level Anchorage Center
Tue 06:45:50 PM 58.8000 -135.9333 328° Northwest 370 426 38,000  Level Anchorage Center
Tue 06:46:50 PM 58.9000 -136.0500 329° Northwest 370 426 38,000  Level Anchorage Center
Tue 06:47:50 PM 59.0000 -136.1500 333° Northwest 390 449 38,000  Level Anchorage Center
Tue 06:48:51 PM 59.0833 -136.2500 328° Northwest 380 437 38,000  Level Anchorage Center
Tue 06:49:51 PM 59.1667 -136.3500 328° Northwest 380 437 38,000  Level Anchorage Center
Tue 06:50:51 PM 59.2667 -136.4500 333° Northwest 370 426 38,000  Level Anchorage Center
Tue 06:51:52 PM 59.3500 -136.5500 329° Northwest 380 437 38,000  Level Anchorage Center
Tue 06:52:52 PM 59.4500 -136.6667 329° Northwest 390 449 38,000  Level Anchorage Center
Tue 06:53:52 PM 59.5333 -136.7667 329° Northwest 380 437 38,000  Level Anchorage Center
Tue 06:54:53 PM 59.6333 -136.8667 333° Northwest 370 426 38,000  Level Anchorage Center
Tue 06:55:53 PM 59.7167 -136.9833 325° Northwest 390 449 38,000  Level Anchorage Center
Tue 06:56:53 PM 59.8167 -137.0833 333° Northwest 390 449 38,000  Level Anchorage Center
Tue 06:57:54 PM 59.9000 -137.2000 325° Northwest 380 437 38,000  Level Anchorage Center
Tue 06:58:54 PM 59.9833 -137.3000 329° Northwest 370 426 38,000  Level Anchorage Center
Tue 06:59:54 PM 60.0833 -137.4000 334° Northwest 380 437 38,000  Level Anchorage Center
Tue 07:00:54 PM 60.1667 -137.5167 325° Northwest 380 437 38,000  Level Anchorage Center
Tue 07:01:55 PM 60.2667 -137.6167 334° Northwest 380 437 38,000  Level Anchorage Center
Tue 07:02:55 PM 60.3500 -137.7333 325° Northwest 370 426 38,000  Level Anchorage Center
Tue 07:03:55 PM 60.4333 -137.8333 329° Northwest 370 426 38,000  Level Anchorage Center
Tue 07:04:56 PM 60.5333 -137.9500 330° Northwest 380 437 38,000  Level Anchorage Center
Tue 07:05:56 PM 60.6167 -138.0667 326° Northwest 390 449 38,000  Level Anchorage Center
Tue 07:06:57 PM 60.7167 -138.1833 330° Northwest 380 437 38,000  Level Anchorage Center
Tue 07:07:57 PM 60.8000 -138.3000 326° Northwest 390 449 38,000  Level Anchorage Center
Tue 07:08:57 PM 60.9000 -138.4167 330° Northwest 380 437 38,000  Level Anchorage Center
Tue 07:09:58 PM 60.9833 -138.5333 326° Northwest 390 449 38,000  Level Anchorage Center
Tue 07:10:58 PM 61.0667 -138.6500 326° Northwest 380 437 38,000  Level Anchorage Center
Tue 07:11:58 PM 61.1667 -138.7500 334° Northwest 380 437 38,000  Level Anchorage Center
Tue 07:12:59 PM 61.2500 -138.8833 322° Northwest 380 437 38,000  Level Anchorage Center
Tue 07:13:59 PM 61.3333 -139.0000 326° Northwest 380 437 38,000  Level Anchorage Center
Tue 07:14:59 PM 61.4167 -139.1333 323° Northwest 380 437 38,000  Level Anchorage Center
Tue 07:16:00 PM 61.5000 -139.2667 323° Northwest 380 437 38,000  Level Anchorage Center
Tue 07:17:00 PM 61.5833 -139.4167 319° Northwest 380 437 38,000  Level Anchorage Center
Tue 07:19:00 PM 61.6654 -139.5586 321° Northwest  Level FlightAware Approximate
Tue 07:19:56 PM 61.8167 -139.8333 321° Northwest 360 414 38,000  Level Anchorage Center
Tue 07:21:00 PM 61.9040 -139.9862 321° Northwest  Level FlightAware Approximate
Tue 07:28:00 PM 62.4729 -141.0118 319° Northwest  Level FlightAware Approximate
Tue 07:28:34 PM 62.5000 -141.0500 318° Northwest 410 472 38,000  Level Anchorage Center
Tue 07:29:00 PM 62.5528 -141.1633 319° Northwest  Level FlightAware Approximate
Tue 07:29:34 PM 62.5667 -141.2000 314° West 350 403 38,000  Level Anchorage Center
Tue 07:30:00 PM 62.6326 -141.3156 319° Northwest  Level FlightAware Approximate
Tue 07:30:34 PM 62.6500 -141.3500 320° Northwest 380 437 38,000  Level Anchorage Center
Tue 07:31:00 PM 62.7122 -141.4686 319° Northwest  Level FlightAware Approximate
Tue 07:31:35 PM 62.7333 -141.5000 321° Northwest 370 426 38,000  Level Anchorage Center
Tue 07:32:00 PM 62.7917 -141.6226 318° Northwest  Level FlightAware Approximate
Tue 07:32:35 PM 62.8167 -141.6333 324° Northwest 380 437 38,000  Level Anchorage Center
Tue 07:33:00 PM 62.8709 -141.7773 318° Northwest  Level FlightAware Approximate
Tue 07:33:35 PM 62.8833 -141.8000 311° West 350 403 38,000  Level Anchorage Center
Tue 07:34:36 PM 62.9500 -141.9667 311° West 370 426 38,000  Level Anchorage Center
Tue 07:35:36 PM 63.0167 -142.1500 309° West 360 414 38,000  Level Anchorage Center
Tue 07:36:36 PM 63.0833 -142.3333 309° West 370 426 38,000  Level Anchorage Center
Tue 07:37:37 PM 63.1500 -142.5000 312° West 360 414 38,000  Level Anchorage Center
Tue 07:38:37 PM 63.2000 -142.7000 299° West 370 426 38,000  Level Anchorage Center
Tue 07:39:37 PM 63.2667 -142.8667 312° West 360 414 38,000  Level Anchorage Center
Tue 07:40:38 PM 63.3333 -143.0500 309° West 380 437 38,000  Level Anchorage Center
Tue 07:41:38 PM 63.3833 -143.2333 301° West 370 426 38,000  Level Anchorage Center
Tue 07:42:39 PM 63.4500 -143.4167 309° West 350 403 38,000  Level Anchorage Center
Tue 07:43:39 PM 63.5000 -143.6167 299° West 370 426 38,000  Level Anchorage Center
Tue 07:44:39 PM 63.5667 -143.8000 309° West 370 426 38,000  Level Anchorage Center
Tue 07:45:40 PM 63.6167 -143.9833 302° West 380 437 38,000  Level Anchorage Center
Tue 07:46:40 PM 63.6833 -144.1667 309° West 370 426 38,000  Level Anchorage Center
Tue 07:47:40 PM 63.7500 -144.3667 307° West 380 437 38,000 -149 Level Anchorage Center
Tue 07:48:41 PM 63.8000 -144.5500 302° West 370 426 37,700 -595 Descending Anchorage Center
Tue 07:49:41 PM 63.8667 -144.7500 307° West 350 403 36,800 -950 Descending Anchorage Center
Tue 07:50:41 PM 63.9333 -144.9500 307° West 360 414 35,800 -992 Descending Anchorage Center
Tue 07:51:42 PM 63.9833 -145.1333 302° West 350 403 34,800 -992 Descending Anchorage Center
Tue 07:52:42 PM 64.0500 -145.3333 307° West 350 403 33,800 -1,550 Descending Anchorage Center
Tue 07:53:42 PM 64.1000 -145.5000 305° West 350 403 31,700 -2,100 Descending Anchorage Center
Tue 07:54:42 PM 64.1500 -145.6833 302° West 340 391 29,600 -2,132 Descending Anchorage Center
Tue 07:55:43 PM 64.2000 -145.8667 302° West 350 403 27,400 -2,132 Descending Anchorage Center
Tue 07:56:43 PM 64.2500 -146.0500 302° West 340 391 25,300 -2,100 Descending Anchorage Center
Tue 07:58:00 PM 64.3298 -146.3061 303° West  Level FlightAware Approximate
Tue 08:05:00 PM 64.6195 -147.8045 253° West  Level FlightAware Approximate
Tue 08:06:00 PM 64.6058 -147.9554 12° North  Level FlightAware Approximate
Tue 08:07:00 PM 64.7094 -147.8996 10° North  Level FlightAware Approximate
Tue 08:08:00 PM 64.8000 -147.8500 16° North  Level FlightAware Approximate
Tue 08:09:00 PM 64.8151 -147.8564 16° North  Level Estimated
Tue 08:10:00 PM 64.8151 -147.8564 16° North  Level Estimated
Tue 08:11:00 PM 64.8151 -147.8564 16° North  Level Estimated
Tue 08:12:00 PM 64.8151 -147.8564 16° North  Level Estimated
Tue 08:13:00 PM 64.8151 -147.8564 16° North  Level Estimated
Tue 08:14:00 PM 64.8151 -147.8564 16° North  Level Estimated
Tue 08:15:00 PM 64.8151 -147.8564 16° North  Level Estimated
Tue 08:16:00 PM 64.8151 -147.8564 16° North  Level Estimated
Tue 08:17:00 PM 64.8151 -147.8564 16° North  Level Estimated
Tue 08:18:00 PM 64.8151 -147.8564 16° North  Level Estimated
Tue 08:19:00 PM 64.8151 -147.8564 16° North  Level Estimated
Tue 08:20:00 PM 64.8151 -147.8564 16° North  Level Estimated
Tue 08:21:00 PM 64.8151 -147.8564 16° North  Level Estimated
Tue 08:22:00 PM 64.8151 -147.8564 16° North  Level Estimated

Login

Don't have an account? Register now (free) for customized features, flight alerts, and more!